createdAt,value
2018-12-11T00:01:01.218Z,85.69
2018-12-11T00:03:31.586Z,86.42
2018-12-11T00:06:01.681Z,86.04
2018-12-11T00:08:32.575Z,86.06
2018-12-11T00:11:04.770Z,85.98
2018-12-11T00:13:34.826Z,87.26
2018-12-11T00:16:05.665Z,86.55
2018-12-11T00:18:36.382Z,86.22
2018-12-11T00:21:07.156Z,85.84
2018-12-11T00:23:37.659Z,86.62
2018-12-11T00:26:08.031Z,85.73
2018-12-11T00:28:38.321Z,86.38
2018-12-11T00:31:09.549Z,86.67
2018-12-11T00:33:40.285Z,87.02
2018-12-11T00:36:11.946Z,87.52
2018-12-11T00:38:42.763Z,87.45
2018-12-11T00:41:13.828Z,87.30
2018-12-11T00:43:43.843Z,88.01
2018-12-11T00:46:13.844Z,87.39
2018-12-11T00:48:43.983Z,87.86
2018-12-11T00:51:15.299Z,87.94
2018-12-11T00:53:45.407Z,87.41
2018-12-11T00:56:15.672Z,87.51
2018-12-11T00:58:45.769Z,87.70
2018-12-11T01:01:15.939Z,87.41
2018-12-11T01:03:46.638Z,88.02
2018-12-11T01:06:16.876Z,88.20
2018-12-11T01:08:47.248Z,87.62
2018-12-11T01:11:18.361Z,87.75
2018-12-11T01:13:49.552Z,87.59
2018-12-11T01:16:19.609Z,87.81
2018-12-11T01:18:49.639Z,87.75
2018-12-11T01:21:19.746Z,88.05
2018-12-11T01:23:49.834Z,87.56
2018-12-11T01:26:21.012Z,87.54
2018-12-11T01:28:51.336Z,87.87
2018-12-11T01:31:22.884Z,87.16
2018-12-11T01:33:54.352Z,87.33
2018-12-11T01:36:24.621Z,87.33
2018-12-11T01:38:54.537Z,88.06
2018-12-11T01:41:25.215Z,88.12
2018-12-11T01:43:56.025Z,87.40
2018-12-11T01:46:26.691Z,87.35
2018-12-11T01:48:57.014Z,87.18
2018-12-11T01:51:28.847Z,87.35
2018-12-11T01:53:59.586Z,87.41
2018-12-11T01:56:29.659Z,87.62
2018-12-11T01:59:00.226Z,87.48
2018-12-11T02:01:30.091Z,86.77
2018-12-11T02:04:00.130Z,87.14
2018-12-11T02:06:31.999Z,86.55
2018-12-11T02:09:05.054Z,86.90
2018-12-11T02:11:35.513Z,87.17
2018-12-11T02:14:05.450Z,87.02
2018-12-11T02:16:35.399Z,87.29
2018-12-11T02:19:05.625Z,87.00
2018-12-11T02:21:41.851Z,87.24
2018-12-11T02:24:07.860Z,87.18
2018-12-11T02:26:38.176Z,87.08
2018-12-11T02:29:08.448Z,87.64
2018-12-11T02:31:39.104Z,86.98
2018-12-11T02:34:09.330Z,86.97
2018-12-11T02:36:39.370Z,87.05
2018-12-11T02:39:09.684Z,86.83
2018-12-11T02:41:39.899Z,86.55
2018-12-11T02:44:11.553Z,86.56
2018-12-11T02:46:41.879Z,87.22
2018-12-11T02:49:12.506Z,86.79
2018-12-11T02:51:44.663Z,86.49
2018-12-11T02:54:15.209Z,86.37
2018-12-11T02:56:45.560Z,86.42
2018-12-11T02:59:16.547Z,86.40
2018-12-11T03:01:46.929Z,86.01
2018-12-11T03:04:17.918Z,85.80
2018-12-11T03:06:49.350Z,86.31
2018-12-11T03:09:19.875Z,86.14
2018-12-11T03:11:49.847Z,86.14
2018-12-11T03:14:19.642Z,86.41
2018-12-11T03:16:49.744Z,85.56
2018-12-11T03:19:19.662Z,85.91
2018-12-11T03:21:49.740Z,85.93
2018-12-11T03:24:22.342Z,85.88
2018-12-11T03:26:54.719Z,86.35
2018-12-11T03:29:24.699Z,86.39
2018-12-11T03:31:54.859Z,86.23
2018-12-11T03:34:25.056Z,86.49
2018-12-11T03:36:55.511Z,86.37
2018-12-11T03:39:27.117Z,86.37
2018-12-11T03:41:57.812Z,85.81
2018-12-11T03:44:28.033Z,85.64
2018-12-11T03:46:58.438Z,85.82
2018-12-11T03:49:28.635Z,85.93
2018-12-11T03:51:59.403Z,85.80
2018-12-11T03:54:29.476Z,85.72
2018-12-11T03:56:59.948Z,86.01
2018-12-11T03:59:30.419Z,85.47
2018-12-11T04:02:00.534Z,85.74
2018-12-11T04:04:30.576Z,85.32
2018-12-11T04:07:00.760Z,85.13
2018-12-11T04:09:30.870Z,85.38
2018-12-11T04:12:01.139Z,85.40
2018-12-11T04:14:31.414Z,85.62
2018-12-11T04:17:01.660Z,85.53
2018-12-11T04:19:31.812Z,85.58
2018-12-11T04:22:02.556Z,85.77
2018-12-11T04:24:32.514Z,85.59
2018-12-11T04:27:02.735Z,85.53
2018-12-11T04:29:33.083Z,85.23
2018-12-11T04:32:03.683Z,85.56
2018-12-11T04:34:33.900Z,85.88
2018-12-11T04:37:04.149Z,85.82
2018-12-11T04:39:35.005Z,85.93
2018-12-11T04:42:05.558Z,85.17
2018-12-11T04:44:35.758Z,85.40
2018-12-11T04:47:06.659Z,85.73
2018-12-11T04:49:36.738Z,85.90
2018-12-11T04:52:06.924Z,85.72
2018-12-11T04:54:37.460Z,85.75
2018-12-11T04:57:07.741Z,85.77
2018-12-11T04:59:39.903Z,85.82
2018-12-11T05:02:11.147Z,85.69
2018-12-11T05:04:41.329Z,85.27
2018-12-11T05:07:12.266Z,85.35
2018-12-11T05:09:43.507Z,85.58
2018-12-11T05:12:14.042Z,85.61
2018-12-11T05:14:44.423Z,85.61
2018-12-11T05:17:14.327Z,85.25
2018-12-11T05:19:44.760Z,85.26
2018-12-11T05:22:14.845Z,85.67
2018-12-11T05:24:45.561Z,85.55
2018-12-11T05:27:15.581Z,85.74
2018-12-11T05:29:45.853Z,85.11
2018-12-11T05:32:16.045Z,85.48
2018-12-11T05:34:47.184Z,84.76
2018-12-11T05:37:17.487Z,85.18
2018-12-11T05:39:48.305Z,85.19
2018-12-11T05:42:19.475Z,85.33
2018-12-11T05:44:49.434Z,85.85
2018-12-11T05:47:19.415Z,86.59
2018-12-11T05:49:49.459Z,86.19
2018-12-11T05:52:19.590Z,86.37
2018-12-11T05:54:49.880Z,86.00
2018-12-11T05:57:20.253Z,86.51
2018-12-11T05:59:50.273Z,86.29
2018-12-11T06:02:20.383Z,86.23
2018-12-11T06:04:50.387Z,86.21
2018-12-11T06:07:20.849Z,85.83
2018-12-11T06:09:51.039Z,86.12
2018-12-11T06:12:21.317Z,85.68
2018-12-11T06:14:51.565Z,85.74
2018-12-11T06:17:23.005Z,85.58
2018-12-11T06:19:54.237Z,85.68
2018-12-11T06:22:25.187Z,85.93
2018-12-11T06:24:55.152Z,84.43
2018-12-11T06:27:25.267Z,83.85
2018-12-11T06:29:55.351Z,83.70
2018-12-11T06:32:25.902Z,83.88
2018-12-11T06:34:55.908Z,83.82
2018-12-11T06:37:25.804Z,82.76
2018-12-11T06:39:56.455Z,83.13
2018-12-11T06:42:27.859Z,83.21
2018-12-11T06:44:57.843Z,83.95
2018-12-11T06:47:28.345Z,83.70
2018-12-11T06:49:58.692Z,84.05
2018-12-11T06:52:28.919Z,83.99
2018-12-11T06:54:59.089Z,83.85
2018-12-11T06:57:29.634Z,84.16
2018-12-11T06:59:59.719Z,84.55
2018-12-11T07:02:29.823Z,84.14
2018-12-11T07:05:00.600Z,84.66
2018-12-11T07:07:31.293Z,85.03
2018-12-11T07:10:02.393Z,84.70
2018-12-11T07:12:32.371Z,85.16
2018-12-11T07:15:02.478Z,85.31
2018-12-11T07:17:32.928Z,85.43
2018-12-11T07:20:04.433Z,85.84
2018-12-11T07:22:34.455Z,85.33
2018-12-11T07:25:04.669Z,85.64
2018-12-11T07:27:36.052Z,85.84
2018-12-11T07:30:06.726Z,85.64
2018-12-11T07:32:36.534Z,85.76
2018-12-11T07:35:06.570Z,85.65
2018-12-11T07:37:36.617Z,85.87
2018-12-11T07:40:06.910Z,85.99
2018-12-11T07:42:37.447Z,85.67
2018-12-11T07:45:08.117Z,85.16
2018-12-11T07:47:38.249Z,85.61
2018-12-11T07:50:08.814Z,85.17
2018-12-11T07:52:38.930Z,85.38
2018-12-11T07:55:10.130Z,84.23
2018-12-11T07:57:40.285Z,85.20
2018-12-11T08:00:11.917Z,84.82
2018-12-11T08:02:41.959Z,84.81
2018-12-11T08:05:12.065Z,84.82
2018-12-11T08:07:42.076Z,84.19
2018-12-11T08:10:12.190Z,84.33
2018-12-11T08:12:43.665Z,84.05
2018-12-11T08:15:14.627Z,84.12
2018-12-11T08:17:44.783Z,84.22
2018-12-11T08:20:14.790Z,84.51
2018-12-11T08:22:45.139Z,84.51
2018-12-11T08:25:15.795Z,83.74
2018-12-11T08:27:46.459Z,84.12
2018-12-11T08:30:17.064Z,84.34
2018-12-11T08:32:48.146Z,83.42
2018-12-11T08:35:18.409Z,83.37
2018-12-11T08:37:48.534Z,83.34
2018-12-11T08:40:18.610Z,83.13
2018-12-11T08:42:49.014Z,83.25
2018-12-11T08:45:18.994Z,83.24
2018-12-11T08:47:49.364Z,82.95
2018-12-11T08:50:19.552Z,82.57
2018-12-11T08:52:49.741Z,82.51
2018-12-11T08:55:19.417Z,82.24
2018-12-11T08:57:49.264Z,82.53
2018-12-11T09:00:19.294Z,82.41
2018-12-11T09:02:50.296Z,82.34
2018-12-11T09:05:20.075Z,83.10
2018-12-11T09:07:50.744Z,82.30
2018-12-11T09:10:21.701Z,82.90
2018-12-11T09:12:52.896Z,82.60
2018-12-11T09:15:22.536Z,82.52
2018-12-11T09:17:53.603Z,82.94
2018-12-11T09:20:23.578Z,82.53
2018-12-11T09:22:53.542Z,81.60
2018-12-11T09:25:26.731Z,82.08
2018-12-11T09:27:56.333Z,81.25
2018-12-11T09:30:25.817Z,82.22
2018-12-11T09:32:55.294Z,82.30
2018-12-11T09:35:24.773Z,81.95
2018-12-11T09:37:54.439Z,81.37
2018-12-11T09:40:24.706Z,81.81
2018-12-11T09:42:54.784Z,80.97
2018-12-11T09:45:25.051Z,80.73
2018-12-11T09:47:54.944Z,79.44
2018-12-11T09:50:24.790Z,79.72
2018-12-11T09:52:58.130Z,80.24
2018-12-11T09:55:29.562Z,79.57
2018-12-11T09:58:01.221Z,80.08
2018-12-11T10:00:31.022Z,80.34
2018-12-11T10:03:06.551Z,79.34
2018-12-11T10:05:36.323Z,79.67
2018-12-11T10:08:06.409Z,80.14
2018-12-11T10:10:36.114Z,79.97
2018-12-11T10:13:06.203Z,79.07
2018-12-11T10:15:36.363Z,79.86
2018-12-11T10:18:06.116Z,81.02
2018-12-11T10:20:37.133Z,80.55
2018-12-11T10:23:07.718Z,80.92
2018-12-11T10:25:37.974Z,80.52
2018-12-11T10:28:07.931Z,79.15
2018-12-11T10:30:43.355Z,79.92
2018-12-11T10:33:14.150Z,79.91
2018-12-11T10:35:44.077Z,79.07
2018-12-11T10:38:14.003Z,78.95
2018-12-11T10:40:44.683Z,79.25
2018-12-11T10:43:14.409Z,79.46
2018-12-11T10:45:45.003Z,78.88
2018-12-11T10:48:14.831Z,79.14
2018-12-11T10:50:45.139Z,79.02
2018-12-11T10:53:16.269Z,79.33
2018-12-11T10:55:46.036Z,79.26
2018-12-11T10:58:15.772Z,79.09
2018-12-11T11:00:50.618Z,79.28
2018-12-11T11:03:20.455Z,80.53
2018-12-11T11:05:50.535Z,80.81
2018-12-11T11:08:20.439Z,80.32
2018-12-11T11:10:50.126Z,81.89
2018-12-11T11:13:20.350Z,81.13
2018-12-11T11:15:51.053Z,81.37
2018-12-11T11:18:22.331Z,81.14
2018-12-11T11:20:52.435Z,80.54
2018-12-11T11:23:23.154Z,80.43
2018-12-11T11:25:53.474Z,81.29
2018-12-11T11:28:23.837Z,81.23
2018-12-11T11:30:53.812Z,81.94
2018-12-11T11:33:23.658Z,81.21
2018-12-11T11:35:53.448Z,81.89
2018-12-11T11:38:23.159Z,81.09
2018-12-11T11:40:52.967Z,81.52
2018-12-11T11:43:23.054Z,81.42
2018-12-11T11:45:53.403Z,80.97
2018-12-11T11:48:23.410Z,80.58
2018-12-11T11:50:53.690Z,80.62
2018-12-11T11:53:23.476Z,81.33
2018-12-11T11:55:53.321Z,81.32
2018-12-11T11:58:24.007Z,80.41
2018-12-11T12:00:54.306Z,81.08
2018-12-11T12:03:24.481Z,80.60
2018-12-11T12:05:55.348Z,81.31
2018-12-11T12:08:26.232Z,80.39
2018-12-11T12:10:57.924Z,80.73
2018-12-11T12:13:28.011Z,81.25
2018-12-11T12:15:58.442Z,81.30
2018-12-11T12:18:29.067Z,81.38
2018-12-11T12:20:59.390Z,80.48
2018-12-11T12:23:30.671Z,80.75
2018-12-11T12:26:00.669Z,80.79
2018-12-11T12:28:31.784Z,80.73
2018-12-11T12:31:02.425Z,80.01
2018-12-11T12:33:32.940Z,81.02
2018-12-11T12:36:03.088Z,81.97
2018-12-11T12:38:33.118Z,82.42
2018-12-11T12:41:03.155Z,82.17
2018-12-11T12:43:33.873Z,81.88
2018-12-11T12:46:04.317Z,82.65
2018-12-11T12:48:34.638Z,82.50
2018-12-11T12:51:06.196Z,82.21
2018-12-11T12:53:36.503Z,82.26
2018-12-11T12:56:10.041Z,83.17
2018-12-11T12:58:43.088Z,82.97
2018-12-11T13:01:18.758Z,82.73
2018-12-11T13:03:50.860Z,83.08
2018-12-11T13:06:21.236Z,82.83
2018-12-11T13:08:51.866Z,82.47
2018-12-11T13:11:22.969Z,82.93
2018-12-11T13:13:53.957Z,82.84
2018-12-11T13:16:24.354Z,82.63
2018-12-11T13:18:54.331Z,82.81
2018-12-11T13:21:24.887Z,82.32
2018-12-11T13:23:56.787Z,82.51
2018-12-11T13:26:26.911Z,82.92
2018-12-11T13:28:57.418Z,83.86
2018-12-11T13:31:28.212Z,83.53
2018-12-11T13:33:59.258Z,83.92
2018-12-11T13:36:32.160Z,84.29
2018-12-11T13:39:02.083Z,84.74
2018-12-11T13:41:32.780Z,84.33
2018-12-11T13:44:03.273Z,83.12
2018-12-11T13:46:33.764Z,83.54
2018-12-11T13:49:06.522Z,83.78
2018-12-11T13:51:37.380Z,83.82
2018-12-11T13:54:07.801Z,83.89
2018-12-11T13:56:38.412Z,83.60
2018-12-11T13:59:08.843Z,84.10
2018-12-11T14:01:39.472Z,84.41
2018-12-11T14:04:09.885Z,84.89
2018-12-11T14:06:40.213Z,85.02
2018-12-11T14:09:15.727Z,85.02
2018-12-11T14:11:46.074Z,84.82
2018-12-11T14:14:16.443Z,84.63
2018-12-11T14:16:47.488Z,84.37
2018-12-11T14:19:17.732Z,84.40
2018-12-11T14:21:47.498Z,85.02
2018-12-11T14:24:17.109Z,84.55
2018-12-11T14:26:47.639Z,84.92
2018-12-11T14:29:18.257Z,84.29
2018-12-11T14:31:48.864Z,84.55
2018-12-11T14:34:20.808Z,84.74
2018-12-11T14:36:52.325Z,84.37
2018-12-11T14:39:22.440Z,84.53
2018-12-11T14:41:52.675Z,84.69
2018-12-11T14:44:22.842Z,85.08
2018-12-11T14:46:53.895Z,84.88
2018-12-11T14:49:24.742Z,84.80
2018-12-11T14:51:55.167Z,85.19
2018-12-11T14:54:26.364Z,84.74
2018-12-11T14:56:56.659Z,84.37
2018-12-11T14:59:26.808Z,84.66
2018-12-11T15:01:56.997Z,85.40
2018-12-11T15:04:27.536Z,85.46
2018-12-11T15:06:57.757Z,85.38
2018-12-11T15:09:34.514Z,86.06
2018-12-11T15:12:04.932Z,86.23
2018-12-11T15:14:35.097Z,87.20
2018-12-11T15:17:05.058Z,87.85
2018-12-11T15:19:37.464Z,87.99
2018-12-11T15:22:07.454Z,88.06
2018-12-11T15:24:38.346Z,87.73
2018-12-11T15:27:08.462Z,88.17
2018-12-11T15:29:40.124Z,88.21
2018-12-11T15:32:10.652Z,88.18
2018-12-11T15:34:40.629Z,87.91
2018-12-11T15:37:10.804Z,87.97
2018-12-11T15:39:42.942Z,87.52
2018-12-11T15:42:13.247Z,87.09
2018-12-11T15:44:47.707Z,87.06
2018-12-11T15:47:19.898Z,88.01
2018-12-11T15:49:51.758Z,87.20
2018-12-11T15:52:21.835Z,87.88
2018-12-11T15:54:52.278Z,87.94
2018-12-11T15:57:22.227Z,87.80
2018-12-11T15:59:52.856Z,87.21
2018-12-11T16:02:24.552Z,86.46
2018-12-11T16:04:55.490Z,86.25
2018-12-11T16:07:25.623Z,85.87
2018-12-11T16:09:56.656Z,85.59
2018-12-11T16:12:27.438Z,86.20
2018-12-11T16:14:58.533Z,86.09
2018-12-11T16:17:29.190Z,86.78
2018-12-11T16:19:59.896Z,86.17
2018-12-11T16:22:30.386Z,87.68
2018-12-11T16:25:00.600Z,88.71
2018-12-11T16:27:30.827Z,88.88
2018-12-11T16:30:02.328Z,90.32
2018-12-11T16:32:32.718Z,90.26
2018-12-11T16:35:03.110Z,92.46
2018-12-11T16:37:33.862Z,92.81
2018-12-11T16:40:04.792Z,92.40
2018-12-11T16:42:36.580Z,92.65
2018-12-11T16:45:07.440Z,93.66
2018-12-11T16:47:37.719Z,95.13
2018-12-11T16:50:07.851Z,95.34
2018-12-11T16:52:38.052Z,95.26
2018-12-11T16:55:08.546Z,94.61
2018-12-11T16:57:38.854Z,93.37
2018-12-11T17:00:09.610Z,93.23
2018-12-11T17:02:40.485Z,92.38
2018-12-11T17:05:10.698Z,91.39
2018-12-11T17:07:41.161Z,91.60
2018-12-11T17:10:13.358Z,92.39
2018-12-11T17:12:44.230Z,91.75
2018-12-11T17:15:18.774Z,92.18
2018-12-11T17:17:48.974Z,91.97
2018-12-11T17:20:19.727Z,91.55
2018-12-11T17:22:50.609Z,92.24
2018-12-11T17:25:21.198Z,91.95
2018-12-11T17:27:51.331Z,91.97
2018-12-11T17:30:21.547Z,92.22
2018-12-11T17:32:52.268Z,91.91
2018-12-11T17:35:22.400Z,91.21
2018-12-11T17:37:53.512Z,92.10
2018-12-11T17:40:24.676Z,92.55
2018-12-11T17:42:54.867Z,93.15
2018-12-11T17:45:25.384Z,92.60
2018-12-11T17:47:57.728Z,92.92
2018-12-11T17:50:28.047Z,93.32
2018-12-11T17:52:58.248Z,93.19
2018-12-11T17:55:28.759Z,92.64
2018-12-11T17:57:58.940Z,93.49
2018-12-11T18:00:30.132Z,93.45
2018-12-11T18:03:01.036Z,92.84
2018-12-11T18:05:31.439Z,92.12
2018-12-11T18:08:01.822Z,92.94
2018-12-11T18:10:35.319Z,92.56
2018-12-11T18:13:05.861Z,92.79
2018-12-11T18:15:37.034Z,92.47
2018-12-11T18:18:07.289Z,92.54
2018-12-11T18:20:38.402Z,92.34
2018-12-11T18:23:09.593Z,92.17
2018-12-11T18:25:40.951Z,93.33
2018-12-11T18:28:11.777Z,93.62
2018-12-11T18:30:42.035Z,93.23
2018-12-11T18:33:12.881Z,93.06
2018-12-11T18:35:43.192Z,93.55
2018-12-11T18:38:13.516Z,94.08
2018-12-11T18:40:46.238Z,93.61
2018-12-11T18:43:18.550Z,94.00
2018-12-11T18:45:49.491Z,94.11
2018-12-11T18:48:20.180Z,94.51
2018-12-11T18:50:52.101Z,94.94
2018-12-11T18:53:22.995Z,94.44
2018-12-11T18:55:53.364Z,94.59
2018-12-11T18:58:24.872Z,94.26
2018-12-11T19:00:55.952Z,95.00
2018-12-11T19:03:26.047Z,94.42
2018-12-11T19:05:57.753Z,94.65
2018-12-11T19:08:28.665Z,94.56
2018-12-11T19:10:58.940Z,95.24
2018-12-11T19:13:29.220Z,94.31
2018-12-11T19:16:00.014Z,94.18
2018-12-11T19:18:30.533Z,93.90
2018-12-11T19:21:00.828Z,96.22
2018-12-11T19:23:48.986Z,95.36
2018-12-11T19:26:19.651Z,94.79
2018-12-11T19:28:51.008Z,94.04
2018-12-11T19:31:20.926Z,93.97
2018-12-11T19:33:51.459Z,94.05
2018-12-11T19:36:22.023Z,95.19
2018-12-11T19:38:53.238Z,94.75
2018-12-11T19:41:23.399Z,94.96
2018-12-11T19:43:53.735Z,94.41
2018-12-11T19:46:25.132Z,95.02
2018-12-11T19:48:55.470Z,95.66
2018-12-11T19:51:27.001Z,95.16
2018-12-11T19:53:57.481Z,95.17
2018-12-11T19:56:27.330Z,94.79
2018-12-11T19:58:57.083Z,95.70
2018-12-11T20:01:26.881Z,95.47
2018-12-11T20:03:57.151Z,95.14
2018-12-11T20:06:27.311Z,94.80
2018-12-11T20:08:57.297Z,95.59
2018-12-11T20:11:27.143Z,95.84
2018-12-11T20:13:56.830Z,95.42
2018-12-11T20:16:26.834Z,95.92
2018-12-11T20:18:57.006Z,95.82
2018-12-11T20:21:26.982Z,95.29
2018-12-11T20:23:57.069Z,95.93
2018-12-11T20:26:26.858Z,96.29
2018-12-11T20:28:56.662Z,95.71
2018-12-11T20:31:26.803Z,96.19
2018-12-11T20:33:56.589Z,96.08
2018-12-11T20:36:26.356Z,95.83
2018-12-11T20:38:56.504Z,95.26
2018-12-11T20:41:27.683Z,94.78
2018-12-11T20:43:57.789Z,94.16
2018-12-11T20:46:27.365Z,93.52
2018-12-11T20:48:56.960Z,92.83
2018-12-11T20:51:26.765Z,93.29
2018-12-11T20:53:56.452Z,93.29
2018-12-11T20:56:26.290Z,92.59
2018-12-11T20:58:55.967Z,91.97
2018-12-11T21:01:25.790Z,91.60
2018-12-11T21:03:55.485Z,91.61
2018-12-11T21:06:25.169Z,91.41
2018-12-11T21:08:54.853Z,91.23
2018-12-11T21:11:24.591Z,90.20
2018-12-11T21:13:54.371Z,90.81
2018-12-11T21:16:23.974Z,90.33
2018-12-11T21:18:54.348Z,90.13
2018-12-11T21:21:24.130Z,89.80
2018-12-11T21:23:53.821Z,90.08
2018-12-11T21:26:23.387Z,89.95
2018-12-11T21:28:53.124Z,90.20
2018-12-11T21:31:23.019Z,89.67
2018-12-11T21:33:53.189Z,90.03
2018-12-11T21:36:22.932Z,90.57
2018-12-11T21:38:52.584Z,90.47
2018-12-11T21:41:22.260Z,90.17
2018-12-11T21:43:52.094Z,89.99
2018-12-11T21:46:21.729Z,90.08
2018-12-11T21:48:51.397Z,90.09
2018-12-11T21:51:21.170Z,89.83
2018-12-11T21:53:50.820Z,90.44
2018-12-11T21:56:20.553Z,89.50
2018-12-11T21:58:50.223Z,89.12
2018-12-11T22:01:20.032Z,89.14
2018-12-11T22:03:49.662Z,89.16
2018-12-11T22:06:19.748Z,89.54
2018-12-11T22:08:50.516Z,89.62
2018-12-11T22:11:21.231Z,90.43
2018-12-11T22:13:50.847Z,90.35
2018-12-11T22:16:20.451Z,89.72
2018-12-11T22:18:50.342Z,88.51
2018-12-11T22:21:19.956Z,89.14
2018-12-11T22:23:49.549Z,89.52
2018-12-11T22:26:19.685Z,88.90
2018-12-11T22:28:49.546Z,89.10
2018-12-11T22:31:19.000Z,88.36
2018-12-11T22:33:48.502Z,88.60
2018-12-11T22:36:18.032Z,87.72
2018-12-11T22:38:47.642Z,87.27
2018-12-11T22:41:17.110Z,88.31
2018-12-11T22:43:46.536Z,87.43
2018-12-11T22:46:16.644Z,88.24
2018-12-11T22:48:46.440Z,90.70
2018-12-11T22:51:16.133Z,88.89
2018-12-11T22:53:46.980Z,87.33
2018-12-11T22:56:16.708Z,88.74
2018-12-11T22:58:46.447Z,87.52
2018-12-11T23:01:16.073Z,87.18
2018-12-11T23:03:45.828Z,87.36
2018-12-11T23:06:15.855Z,87.25
2018-12-11T23:08:45.475Z,86.79
2018-12-11T23:11:15.138Z,86.77
2018-12-11T23:13:44.848Z,87.62
2018-12-11T23:16:14.637Z,86.84
2018-12-11T23:18:44.243Z,88.30
2018-12-11T23:21:14.050Z,88.28
2018-12-11T23:23:44.157Z,87.12
2018-12-11T23:26:14.227Z,86.86
2018-12-11T23:28:44.341Z,87.14
2018-12-11T23:31:14.473Z,87.00
2018-12-11T23:33:44.677Z,86.45
2018-12-11T23:36:14.728Z,87.06
2018-12-11T23:38:44.801Z,86.47
2018-12-11T23:41:14.649Z,86.06
2018-12-11T23:43:44.372Z,86.78
2018-12-11T23:46:14.229Z,88.38
2018-12-11T23:48:43.857Z,86.98
2018-12-11T23:51:13.561Z,87.67
2018-12-11T23:53:43.244Z,87.27
2018-12-11T23:56:13.146Z,88.10
2018-12-11T23:58:42.747Z,89.20
